Northwest Alabama Regional Airport Muscle Shoals US
ICAO: KMSL
IATA: MSL
Category: Medium
Scheduled Services: Yes

Elevation: 551 ft
TransAlt. 18000 ft.

Airport Communications:
ASOS:119.425
MEMPHIS CNTR:120.8
ANNISTON RDO:122.2
CTAF/UNICOM:123.05

KMSL Zoom In..

Runways:

(A) RW 11 length 6694 ft width 150 ft
---- / hdg 114

(B) RW 18 length 4000 ft width 100 ft
---- / hdg 181

(C) RW 29 length 6694 ft width 150 ft
ILS 109.70 / hdg 294

(D) RW 36 length 4000 ft width 100 ft
---- / hdg 1

Location; KMSL
Day. 16 / Time. 12.05 Zulu
* Altimeter: 30.06
* Temperature: 23° c. 73.4°f.
* Wind from: 340° Speed 04 kn.
Dewpoint: 22° c.
Visibility: 10 Statute Miles.
Clouds: Scattered 900 ft.
Clouds: Broken 2600 ft.
Clouds: Broken 3500 ft.
Conditions: Thunderstorm.

KMSL 161205Z AUTO 34004KT 10SM TS SCT009 BKN026 BKN035 23/22 A3006 RMK AO2 LTG DSNT ALQDS TSB1159 T02280217


Wind From 340°
Speed 04 kn.

 
 
jpsmedia.com for Web Design worldairports.se 2018   terms of use